sensor_id;sensor_type;location;lat;lon;timestamp;temperature;humidity
33943;DHT22;66763;47.856;17.462;2023-04-03T00:01:22;21.00;45.30
33943;DHT22;66763;47.856;17.462;2023-04-03T00:03:48;21.00;45.10
33943;DHT22;66763;47.856;17.462;2023-04-03T00:06:13;20.90;45.10
33943;DHT22;66763;47.856;17.462;2023-04-03T00:08:39;20.90;45.00
33943;DHT22;66763;47.856;17.462;2023-04-03T00:11:06;20.90;44.90
33943;DHT22;66763;47.856;17.462;2023-04-03T00:13:31;20.90;45.30
33943;DHT22;66763;47.856;17.462;2023-04-03T00:15:57;20.90;45.40
33943;DHT22;66763;47.856;17.462;2023-04-03T00:18:22;20.90;44.90
33943;DHT22;66763;47.856;17.462;2023-04-03T00:20:48;20.90;45.30
33943;DHT22;66763;47.856;17.462;2023-04-03T00:23:14;20.80;45.20
33943;DHT22;66763;47.856;17.462;2023-04-03T00:25:40;20.80;45.30
33943;DHT22;66763;47.856;17.462;2023-04-03T00:28:05;20.80;45.20
33943;DHT22;66763;47.856;17.462;2023-04-03T00:30:31;20.80;45.20
33943;DHT22;66763;47.856;17.462;2023-04-03T00:32:57;20.80;45.00
33943;DHT22;66763;47.856;17.462;2023-04-03T00:35:23;20.80;45.10
33943;DHT22;66763;47.856;17.462;2023-04-03T00:37:51;20.80;45.10
33943;DHT22;66763;47.856;17.462;2023-04-03T00:40:17;20.70;45.00
33943;DHT22;66763;47.856;17.462;2023-04-03T00:42:43;20.70;45.10
33943;DHT22;66763;47.856;17.462;2023-04-03T00:45:22;20.70;45.10
33943;DHT22;66763;47.856;17.462;2023-04-03T00:47:48;20.70;45.10
33943;DHT22;66763;47.856;17.462;2023-04-03T00:50:13;20.70;45.10
33943;DHT22;66763;47.856;17.462;2023-04-03T00:52:39;20.70;45.00
33943;DHT22;66763;47.856;17.462;2023-04-03T00:55:05;20.60;44.90
33943;DHT22;66763;47.856;17.462;2023-04-03T00:57:32;20.70;45.00
33943;DHT22;66763;47.856;17.462;2023-04-03T00:59:59;20.60;45.10
33943;DHT22;66763;47.856;17.462;2023-04-03T01:02:26;20.60;45.30
33943;DHT22;66763;47.856;17.462;2023-04-03T01:04:52;20.70;45.20
33943;DHT22;66763;47.856;17.462;2023-04-03T01:09:43;20.60;45.10
33943;DHT22;66763;47.856;17.462;2023-04-03T01:12:22;20.60;45.30
33943;DHT22;66763;47.856;17.462;2023-04-03T01:14:49;20.60;45.50
33943;DHT22;66763;47.856;17.462;2023-04-03T01:17:34;20.60;45.50
33943;DHT22;66763;47.856;17.462;2023-04-03T01:25:28;20.50;45.60
33943;DHT22;66763;47.856;17.462;2023-04-03T01:27:54;20.50;45.30
33943;DHT22;66763;47.856;17.462;2023-04-03T01:30:20;20.50;45.60
33943;DHT22;66763;47.856;17.462;2023-04-03T01:32:46;20.50;45.50
33943;DHT22;66763;47.856;17.462;2023-04-03T01:35:12;20.40;45.50
33943;DHT22;66763;47.856;17.462;2023-04-03T01:37:37;20.50;45.50
33943;DHT22;66763;47.856;17.462;2023-04-03T01:40:03;20.50;45.50
33943;DHT22;66763;47.856;17.462;2023-04-03T01:42:29;20.50;45.40
33943;DHT22;66763;47.856;17.462;2023-04-03T01:44:54;20.50;45.50
33943;DHT22;66763;47.856;17.462;2023-04-03T01:47:20;20.50;45.50
33943;DHT22;66763;47.856;17.462;2023-04-03T01:49:46;20.50;45.40
33943;DHT22;66763;47.856;17.462;2023-04-03T01:52:12;20.50;45.60
33943;DHT22;66763;47.856;17.462;2023-04-03T01:54:37;20.40;45.10
33943;DHT22;66763;47.856;17.462;2023-04-03T01:57:03;20.40;45.40
33943;DHT22;66763;47.856;17.462;2023-04-03T01:59:28;20.40;45.00
33943;DHT22;66763;47.856;17.462;2023-04-03T02:01:54;20.40;45.10
33943;DHT22;66763;47.856;17.462;2023-04-03T02:04:19;20.40;45.30
33943;DHT22;66763;47.856;17.462;2023-04-03T02:06:45;20.40;45.10
33943;DHT22;66763;47.856;17.462;2023-04-03T02:09:10;20.40;45.20
33943;DHT22;66763;47.856;17.462;2023-04-03T02:11:36;20.40;45.10
33943;DHT22;66763;47.856;17.462;2023-04-03T02:14:01;20.40;45.20
33943;DHT22;66763;47.856;17.462;2023-04-03T02:16:27;20.40;45.10
33943;DHT22;66763;47.856;17.462;2023-04-03T02:18:54;20.30;45.20
33943;DHT22;66763;47.856;17.462;2023-04-03T02:21:19;20.30;45.10
33943;DHT22;66763;47.856;17.462;2023-04-03T02:23:45;20.30;45.20
33943;DHT22;66763;47.856;17.462;2023-04-03T02:26:11;20.30;45.20
33943;DHT22;66763;47.856;17.462;2023-04-03T02:28:37;20.30;45.10
33943;DHT22;66763;47.856;17.462;2023-04-03T02:31:03;20.30;45.20
33943;DHT22;66763;47.856;17.462;2023-04-03T02:33:29;20.30;44.90
33943;DHT22;66763;47.856;17.462;2023-04-03T02:35:55;20.30;44.90
33943;DHT22;66763;47.856;17.462;2023-04-03T02:38:21;20.30;45.20
33943;DHT22;66763;47.856;17.462;2023-04-03T02:40:46;20.30;45.30
33943;DHT22;66763;47.856;17.462;2023-04-03T02:43:12;20.30;45.40
33943;DHT22;66763;47.856;17.462;2023-04-03T02:45:37;20.30;45.10
33943;DHT22;66763;47.856;17.462;2023-04-03T02:48:03;20.30;45.40
33943;DHT22;66763;47.856;17.462;2023-04-03T02:50:28;20.20;45.30
33943;DHT22;66763;47.856;17.462;2023-04-03T02:52:54;20.20;45.00
33943;DHT22;66763;47.856;17.462;2023-04-03T02:55:19;20.20;45.30
33943;DHT22;66763;47.856;17.462;2023-04-03T02:57:45;20.20;45.10
33943;DHT22;66763;47.856;17.462;2023-04-03T03:00:10;20.20;45.10
33943;DHT22;66763;47.856;17.462;2023-04-03T03:02:36;20.20;45.10
33943;DHT22;66763;47.856;17.462;2023-04-03T03:05:02;20.20;45.30
33943;DHT22;66763;47.856;17.462;2023-04-03T03:07:27;20.20;45.10
33943;DHT22;66763;47.856;17.462;2023-04-03T03:09:53;20.20;45.00
33943;DHT22;66763;47.856;17.462;2023-04-03T03:12:18;20.20;45.40
33943;DHT22;66763;47.856;17.462;2023-04-03T03:14:50;20.20;45.20
33943;DHT22;66763;47.856;17.462;2023-04-03T03:17:16;20.20;45.20
33943;DHT22;66763;47.856;17.462;2023-04-03T03:19:41;20.20;45.10
33943;DHT22;66763;47.856;17.462;2023-04-03T03:22:07;20.10;45.00
33943;DHT22;66763;47.856;17.462;2023-04-03T03:24:32;20.10;45.00
33943;DHT22;66763;47.856;17.462;2023-04-03T03:26:58;20.10;45.10
33943;DHT22;66763;47.856;17.462;2023-04-03T03:29:23;20.10;44.70
33943;DHT22;66763;47.856;17.462;2023-04-03T03:31:49;20.20;44.80
33943;DHT22;66763;47.856;17.462;2023-04-03T03:34:14;20.20;44.70
33943;DHT22;66763;47.856;17.462;2023-04-03T03:36:40;20.20;45.00
33943;DHT22;66763;47.856;17.462;2023-04-03T03:39:06;20.10;44.90
33943;DHT22;66763;47.856;17.462;2023-04-03T03:41:32;20.10;44.80
33943;DHT22;66763;47.856;17.462;2023-04-03T03:43:57;20.10;44.60
33943;DHT22;66763;47.856;17.462;2023-04-03T03:46:23;20.10;45.00
33943;DHT22;66763;47.856;17.462;2023-04-03T03:48:48;20.10;44.90
33943;DHT22;66763;47.856;17.462;2023-04-03T03:51:14;20.10;45.10
33943;DHT22;66763;47.856;17.462;2023-04-03T03:53:40;20.10;45.10
33943;DHT22;66763;47.856;17.462;2023-04-03T03:56:06;20.10;44.80
33943;DHT22;66763;47.856;17.462;2023-04-03T03:58:32;20.10;45.20
33943;DHT22;66763;47.856;17.462;2023-04-03T04:01:04;20.00;45.20
33943;DHT22;66763;47.856;17.462;2023-04-03T04:03:30;20.00;45.10
33943;DHT22;66763;47.856;17.462;2023-04-03T04:05:56;20.00;44.90
33943;DHT22;66763;47.856;17.462;2023-04-03T04:08:22;20.10;44.90
33943;DHT22;66763;47.856;17.462;2023-04-03T04:10:47;20.10;45.00
33943;DHT22;66763;47.856;17.462;2023-04-03T04:13:13;20.10;44.90
33943;DHT22;66763;47.856;17.462;2023-04-03T04:15:38;20.10;44.90
33943;DHT22;66763;47.856;17.462;2023-04-03T04:18:04;20.10;44.40
33943;DHT22;66763;47.856;17.462;2023-04-03T04:20:29;20.00;44.80
33943;DHT22;66763;47.856;17.462;2023-04-03T04:22:55;20.00;44.70
33943;DHT22;66763;47.856;17.462;2023-04-03T04:25:20;20.10;44.80
33943;DHT22;66763;47.856;17.462;2023-04-03T04:27:46;20.10;44.80
33943;DHT22;66763;47.856;17.462;2023-04-03T04:30:11;20.00;44.70
33943;DHT22;66763;47.856;17.462;2023-04-03T04:32:37;20.00;44.80
33943;DHT22;66763;47.856;17.462;2023-04-03T04:35:03;20.00;44.80
33943;DHT22;66763;47.856;17.462;2023-04-03T04:37:29;20.00;44.80
33943;DHT22;66763;47.856;17.462;2023-04-03T04:39:54;20.00;44.70
33943;DHT22;66763;47.856;17.462;2023-04-03T04:42:20;20.00;45.10
33943;DHT22;66763;47.856;17.462;2023-04-03T04:44:46;20.00;44.80
33943;DHT22;66763;47.856;17.462;2023-04-03T04:47:11;20.00;44.90
33943;DHT22;66763;47.856;17.462;2023-04-03T04:49:37;19.90;44.90
33943;DHT22;66763;47.856;17.462;2023-04-03T04:52:02;19.90;44.60
33943;DHT22;66763;47.856;17.462;2023-04-03T04:54:28;19.90;44.70
33943;DHT22;66763;47.856;17.462;2023-04-03T04:56:53;19.90;44.80
33943;DHT22;66763;47.856;17.462;2023-04-03T04:59:19;19.90;44.90
33943;DHT22;66763;47.856;17.462;2023-04-03T05:01:45;19.90;44.80
33943;DHT22;66763;47.856;17.462;2023-04-03T05:04:11;19.80;45.10
33943;DHT22;66763;47.856;17.462;2023-04-03T05:06:38;19.80;45.00
33943;DHT22;66763;47.856;17.462;2023-04-03T05:09:03;19.80;44.80
33943;DHT22;66763;47.856;17.462;2023-04-03T05:11:29;19.80;44.80
33943;DHT22;66763;47.856;17.462;2023-04-03T05:13:54;19.80;44.80
33943;DHT22;66763;47.856;17.462;2023-04-03T05:16:20;19.80;44.80
33943;DHT22;66763;47.856;17.462;2023-04-03T05:18:45;19.90;44.70
33943;DHT22;66763;47.856;17.462;2023-04-03T05:21:11;20.00;44.70
33943;DHT22;66763;47.856;17.462;2023-04-03T05:23:37;20.10;44.80
33943;DHT22;66763;47.856;17.462;2023-04-03T05:26:02;20.20;45.00
33943;DHT22;66763;47.856;17.462;2023-04-03T05:28:28;20.30;45.00
33943;DHT22;66763;47.856;17.462;2023-04-03T05:30:55;20.40;44.80
33943;DHT22;66763;47.856;17.462;2023-04-03T05:33:21;20.50;44.80
33943;DHT22;66763;47.856;17.462;2023-04-03T05:35:47;20.60;44.70
33943;DHT22;66763;47.856;17.462;2023-04-03T05:38:12;20.70;44.60
33943;DHT22;66763;47.856;17.462;2023-04-03T05:40:38;20.70;44.60
33943;DHT22;66763;47.856;17.462;2023-04-03T05:43:03;20.80;44.50
33943;DHT22;66763;47.856;17.462;2023-04-03T05:45:29;20.90;44.50
33943;DHT22;66763;47.856;17.462;2023-04-03T05:47:54;20.90;44.50
33943;DHT22;66763;47.856;17.462;2023-04-03T05:50:20;21.00;44.50
33943;DHT22;66763;47.856;17.462;2023-04-03T05:52:46;21.00;44.50
33943;DHT22;66763;47.856;17.462;2023-04-03T05:55:13;21.10;44.50
33943;DHT22;66763;47.856;17.462;2023-04-03T05:57:38;21.10;44.30
33943;DHT22;66763;47.856;17.462;2023-04-03T06:00:04;21.10;44.40
33943;DHT22;66763;47.856;17.462;2023-04-03T06:02:31;21.20;44.30
33943;DHT22;66763;47.856;17.462;2023-04-03T06:04:56;21.20;44.20
33943;DHT22;66763;47.856;17.462;2023-04-03T06:07:23;21.20;44.10
33943;DHT22;66763;47.856;17.462;2023-04-03T06:09:51;21.30;44.00
33943;DHT22;66763;47.856;17.462;2023-04-03T06:12:17;21.30;44.00
33943;DHT22;66763;47.856;17.462;2023-04-03T06:14:43;21.30;44.10
33943;DHT22;66763;47.856;17.462;2023-04-03T06:17:08;21.30;44.60
33943;DHT22;66763;47.856;17.462;2023-04-03T06:19:35;21.30;43.60
33943;DHT22;66763;47.856;17.462;2023-04-03T06:22:01;21.30;44.00
33943;DHT22;66763;47.856;17.462;2023-04-03T06:24:26;21.30;44.00
33943;DHT22;66763;47.856;17.462;2023-04-03T06:26:52;21.20;43.80
33943;DHT22;66763;47.856;17.462;2023-04-03T06:29:18;21.20;43.80
33943;DHT22;66763;47.856;17.462;2023-04-03T06:31:45;21.20;44.10
33943;DHT22;66763;47.856;17.462;2023-04-03T06:34:10;21.20;44.10
33943;DHT22;66763;47.856;17.462;2023-04-03T06:36:37;21.20;44.10
33943;DHT22;66763;47.856;17.462;2023-04-03T06:39:02;21.20;44.00
33943;DHT22;66763;47.856;17.462;2023-04-03T06:41:28;21.20;44.20
33943;DHT22;66763;47.856;17.462;2023-04-03T06:43:54;21.10;44.20
33943;DHT22;66763;47.856;17.462;2023-04-03T06:46:21;21.10;44.90
33943;DHT22;66763;47.856;17.462;2023-04-03T06:48:47;21.10;44.40
33943;DHT22;66763;47.856;17.462;2023-04-03T06:51:23;21.10;44.40
33943;DHT22;66763;47.856;17.462;2023-04-03T06:53:49;21.10;44.40
33943;DHT22;66763;47.856;17.462;2023-04-03T06:56:15;21.00;44.40
33943;DHT22;66763;47.856;17.462;2023-04-03T06:58:41;21.00;44.40
33943;DHT22;66763;47.856;17.462;2023-04-03T07:01:08;21.00;44.30
33943;DHT22;66763;47.856;17.462;2023-04-03T07:03:35;21.00;44.40
33943;DHT22;66763;47.856;17.462;2023-04-03T07:06:01;20.90;44.30
33943;DHT22;66763;47.856;17.462;2023-04-03T07:08:26;20.90;44.70
33943;DHT22;66763;47.856;17.462;2023-04-03T07:10:52;21.00;44.80
33943;DHT22;66763;47.856;17.462;2023-04-03T07:13:17;21.10;44.80
33943;DHT22;66763;47.856;17.462;2023-04-03T07:15:43;21.20;44.80
33943;DHT22;66763;47.856;17.462;2023-04-03T07:18:09;21.20;43.70
33943;DHT22;66763;47.856;17.462;2023-04-03T07:20:34;21.20;43.60
33943;DHT22;66763;47.856;17.462;2023-04-03T07:23:00;21.30;43.50
33943;DHT22;66763;47.856;17.462;2023-04-03T07:25:27;21.30;43.70
33943;DHT22;66763;47.856;17.462;2023-04-03T07:27:52;21.40;43.60
33943;DHT22;66763;47.856;17.462;2023-04-03T07:30:19;21.40;43.40
33943;DHT22;66763;47.856;17.462;2023-04-03T07:32:45;21.40;43.60
33943;DHT22;66763;47.856;17.462;2023-04-03T07:35:11;21.50;43.70
33943;DHT22;66763;47.856;17.462;2023-04-03T07:37:37;21.60;43.80
33943;DHT22;66763;47.856;17.462;2023-04-03T07:40:02;21.60;43.90
33943;DHT22;66763;47.856;17.462;2023-04-03T07:42:29;21.60;43.80
33943;DHT22;66763;47.856;17.462;2023-04-03T07:44:54;21.70;43.90
33943;DHT22;66763;47.856;17.462;2023-04-03T07:47:20;21.70;43.90
33943;DHT22;66763;47.856;17.462;2023-04-03T07:49:46;21.70;43.80
33943;DHT22;66763;47.856;17.462;2023-04-03T07:52:12;21.70;44.00
33943;DHT22;66763;47.856;17.462;2023-04-03T07:54:39;21.80;44.10
33943;DHT22;66763;47.856;17.462;2023-04-03T07:57:05;21.80;44.10
33943;DHT22;66763;47.856;17.462;2023-04-03T07:59:31;21.80;44.10
33943;DHT22;66763;47.856;17.462;2023-04-03T08:01:56;21.80;44.00
33943;DHT22;66763;47.856;17.462;2023-04-03T08:04:22;21.90;44.40
33943;DHT22;66763;47.856;17.462;2023-04-03T08:06:47;21.90;44.20
33943;DHT22;66763;47.856;17.462;2023-04-03T08:09:14;21.90;44.20
33943;DHT22;66763;47.856;17.462;2023-04-03T08:11:40;21.90;44.20
33943;DHT22;66763;47.856;17.462;2023-04-03T08:14:05;21.90;44.30
33943;DHT22;66763;47.856;17.462;2023-04-03T08:16:31;22.00;44.20
33943;DHT22;66763;47.856;17.462;2023-04-03T08:18:57;22.00;43.20
33943;DHT22;66763;47.856;17.462;2023-04-03T08:21:22;22.00;43.30
33943;DHT22;66763;47.856;17.462;2023-04-03T08:23:49;22.00;42.90
33943;DHT22;66763;47.856;17.462;2023-04-03T08:26:19;22.00;43.10
33943;DHT22;66763;47.856;17.462;2023-04-03T08:28:46;22.00;43.50
33943;DHT22;66763;47.856;17.462;2023-04-03T08:31:14;22.00;43.20
33943;DHT22;66763;47.856;17.462;2023-04-03T08:33:40;22.00;43.70
33943;DHT22;66763;47.856;17.462;2023-04-03T08:36:06;22.00;43.40
33943;DHT22;66763;47.856;17.462;2023-04-03T08:38:32;22.00;43.30
33943;DHT22;66763;47.856;17.462;2023-04-03T08:43:56;22.00;43.20
33943;DHT22;66763;47.856;17.462;2023-04-03T08:46:24;22.00;43.20
33943;DHT22;66763;47.856;17.462;2023-04-03T08:48:51;21.90;43.40
33943;DHT22;66763;47.856;17.462;2023-04-03T08:51:18;21.90;43.40
33943;DHT22;66763;47.856;17.462;2023-04-03T08:53:52;21.90;43.10
33943;DHT22;66763;47.856;17.462;2023-04-03T08:56:21;21.90;43.40
33943;DHT22;66763;47.856;17.462;2023-04-03T08:58:50;21.80;43.80
33943;DHT22;66763;47.856;17.462;2023-04-03T09:03:43;21.80;43.30
33943;DHT22;66763;47.856;17.462;2023-04-03T09:11:26;21.70;43.60
33943;DHT22;66763;47.856;17.462;2023-04-03T09:16:20;21.70;43.60
33943;DHT22;66763;47.856;17.462;2023-04-03T09:18:52;21.60;43.50
33943;DHT22;66763;47.856;17.462;2023-04-03T09:21:21;21.60;43.70
33943;DHT22;66763;47.856;17.462;2023-04-03T09:26:16;21.50;43.10
33943;DHT22;66763;47.856;17.462;2023-04-03T09:28:43;21.50;43.10
33943;DHT22;66763;47.856;17.462;2023-04-03T09:31:14;21.40;43.50
33943;DHT22;66763;47.856;17.462;2023-04-03T09:33:41;21.50;43.80
33943;DHT22;66763;47.856;17.462;2023-04-03T09:36:07;21.40;43.70
33943;DHT22;66763;47.856;17.462;2023-04-03T09:38:32;21.40;43.90
33943;DHT22;66763;47.856;17.462;2023-04-03T09:41:20;21.40;43.80
33943;DHT22;66763;47.856;17.462;2023-04-03T09:43:51;21.40;44.00
33943;DHT22;66763;47.856;17.462;2023-04-03T09:48:52;21.40;44.20
33943;DHT22;66763;47.856;17.462;2023-04-03T09:51:24;21.30;44.20
33943;DHT22;66763;47.856;17.462;2023-04-03T09:53:49;21.20;43.70
33943;DHT22;66763;47.856;17.462;2023-04-03T09:58:40;21.20;43.60
33943;DHT22;66763;47.856;17.462;2023-04-03T10:01:09;21.20;43.50
33943;DHT22;66763;47.856;17.462;2023-04-03T10:03:45;21.10;43.40
33943;DHT22;66763;47.856;17.462;2023-04-03T10:06:31;21.20;43.30
33943;DHT22;66763;47.856;17.462;2023-04-03T10:09:01;21.10;43.40
33943;DHT22;66763;47.856;17.462;2023-04-03T10:11:29;21.10;43.20
33943;DHT22;66763;47.856;17.462;2023-04-03T10:13:56;21.10;43.40
33943;DHT22;66763;47.856;17.462;2023-04-03T10:16:24;21.00;43.20
33943;DHT22;66763;47.856;17.462;2023-04-03T10:26:49;20.90;43.80
33943;DHT22;66763;47.856;17.462;2023-04-03T10:31:51;21.00;44.20
33943;DHT22;66763;47.856;17.462;2023-04-03T10:34:22;21.10;44.10
33943;DHT22;66763;47.856;17.462;2023-04-03T10:39:33;21.30;44.00
33943;DHT22;66763;47.856;17.462;2023-04-03T10:45:18;21.50;43.70
33943;DHT22;66763;47.856;17.462;2023-04-03T10:47:32;21.60;43.70
33943;DHT22;66763;47.856;17.462;2023-04-03T10:52:43;21.70;43.60
33943;DHT22;66763;47.856;17.462;2023-04-03T10:55:24;21.70;43.50
33943;DHT22;66763;47.856;17.462;2023-04-03T10:57:56;21.80;43.80
33943;DHT22;66763;47.856;17.462;2023-04-03T11:00:23;21.80;43.80
33943;DHT22;66763;47.856;17.462;2023-04-03T11:07:52;22.00;43.70
33943;DHT22;66763;47.856;17.462;2023-04-03T11:10:35;22.10;44.00
33943;DHT22;66763;47.856;17.462;2023-04-03T11:13:24;22.10;44.00
33943;DHT22;66763;47.856;17.462;2023-04-03T11:15:48;22.20;43.60
33943;DHT22;66763;47.856;17.462;2023-04-03T11:18:19;22.20;43.40
33943;DHT22;66763;47.856;17.462;2023-04-03T11:21:00;22.30;43.50
33943;DHT22;66763;47.856;17.462;2023-04-03T11:23:31;22.20;43.20
33943;DHT22;66763;47.856;17.462;2023-04-03T11:26:01;22.20;42.60
33943;DHT22;66763;47.856;17.462;2023-04-03T11:28:30;22.30;43.30
33943;DHT22;66763;47.856;17.462;2023-04-03T11:33:55;22.30;46.70
33943;DHT22;66763;47.856;17.462;2023-04-03T11:36:25;22.40;47.70
33943;DHT22;66763;47.856;17.462;2023-04-03T11:38:52;22.40;47.70
33943;DHT22;66763;47.856;17.462;2023-04-03T11:41:24;22.40;47.70
33943;DHT22;66763;47.856;17.462;2023-04-03T11:44:04;22.40;48.30
33943;DHT22;66763;47.856;17.462;2023-04-03T11:46:48;22.40;48.00
33943;DHT22;66763;47.856;17.462;2023-04-03T11:51:58;22.30;47.30
33943;DHT22;66763;47.856;17.462;2023-04-03T11:57:22;22.20;46.60
33943;DHT22;66763;47.856;17.462;2023-04-03T11:59:47;22.10;46.30
33943;DHT22;66763;47.856;17.462;2023-04-03T12:05:25;22.10;46.30
33943;DHT22;66763;47.856;17.462;2023-04-03T12:10:35;22.00;45.90
33943;DHT22;66763;47.856;17.462;2023-04-03T12:13:01;22.00;46.20
33943;DHT22;66763;47.856;17.462;2023-04-03T12:20:52;21.90;46.80
33943;DHT22;66763;47.856;17.462;2023-04-03T12:23:25;21.90;47.60
33943;DHT22;66763;47.856;17.462;2023-04-03T12:25:51;21.80;47.20
33943;DHT22;66763;47.856;17.462;2023-04-03T12:28:17;21.70;47.90
33943;DHT22;66763;47.856;17.462;2023-04-03T12:30:42;21.70;47.70
33943;DHT22;66763;47.856;17.462;2023-04-03T12:36:03;21.70;47.50
33943;DHT22;66763;47.856;17.462;2023-04-03T12:43:47;21.60;47.40
33943;DHT22;66763;47.856;17.462;2023-04-03T12:46:16;21.60;47.40
33943;DHT22;66763;47.856;17.462;2023-04-03T12:51:08;21.60;47.10
33943;DHT22;66763;47.856;17.462;2023-04-03T12:53:34;21.60;47.10
33943;DHT22;66763;47.856;17.462;2023-04-03T12:58:44;21.50;47.00
33943;DHT22;66763;47.856;17.462;2023-04-03T13:01:11;21.40;46.90
33943;DHT22;66763;47.856;17.462;2023-04-03T13:03:41;21.40;47.00
33943;DHT22;66763;47.856;17.462;2023-04-03T13:06:14;21.40;46.80
33943;DHT22;66763;47.856;17.462;2023-04-03T13:08:48;21.40;47.00
33943;DHT22;66763;47.856;17.462;2023-04-03T13:11:14;21.40;46.70
33943;DHT22;66763;47.856;17.462;2023-04-03T13:13:53;21.30;46.70
33943;DHT22;66763;47.856;17.462;2023-04-03T13:16:18;21.30;46.60
33943;DHT22;66763;47.856;17.462;2023-04-03T13:18:44;21.30;46.40
33943;DHT22;66763;47.856;17.462;2023-04-03T13:21:17;21.30;46.50
33943;DHT22;66763;47.856;17.462;2023-04-03T13:23:45;21.30;46.70
33943;DHT22;66763;47.856;17.462;2023-04-03T13:26:10;21.20;47.10
33943;DHT22;66763;47.856;17.462;2023-04-03T13:28:37;21.20;46.90
33943;DHT22;66763;47.856;17.462;2023-04-03T13:31:25;21.20;44.50
33943;DHT22;66763;47.856;17.462;2023-04-03T13:33:55;21.10;45.20
33943;DHT22;66763;47.856;17.462;2023-04-03T13:36:29;21.10;44.60
33943;DHT22;66763;47.856;17.462;2023-04-03T13:39:37;21.10;44.60
33943;DHT22;66763;47.856;17.462;2023-04-03T13:41:49;21.00;45.20
33943;DHT22;66763;47.856;17.462;2023-04-03T13:44:16;21.00;44.60
33943;DHT22;66763;47.856;17.462;2023-04-03T13:46:41;21.10;44.90
33943;DHT22;66763;47.856;17.462;2023-04-03T13:54:47;21.00;45.60
33943;DHT22;66763;47.856;17.462;2023-04-03T13:57:14;21.00;45.20
33943;DHT22;66763;47.856;17.462;2023-04-03T13:59:40;21.00;45.00
33943;DHT22;66763;47.856;17.462;2023-04-03T14:02:11;20.90;45.00
33943;DHT22;66763;47.856;17.462;2023-04-03T14:07:09;21.00;44.40
33943;DHT22;66763;47.856;17.462;2023-04-03T14:09:35;21.10;44.70
33943;DHT22;66763;47.856;17.462;2023-04-03T14:12:08;21.20;44.30
33943;DHT22;66763;47.856;17.462;2023-04-03T14:14:34;21.30;44.30
33943;DHT22;66763;47.856;17.462;2023-04-03T14:17:01;21.40;44.10
33943;DHT22;66763;47.856;17.462;2023-04-03T14:19:29;21.50;44.20
33943;DHT22;66763;47.856;17.462;2023-04-03T14:21:55;21.50;44.10
33943;DHT22;66763;47.856;17.462;2023-04-03T14:24:21;21.60;43.60
33943;DHT22;66763;47.856;17.462;2023-04-03T14:26:47;21.70;44.20
33943;DHT22;66763;47.856;17.462;2023-04-03T14:29:13;21.70;43.70
33943;DHT22;66763;47.856;17.462;2023-04-03T14:31:39;21.80;43.80
33943;DHT22;66763;47.856;17.462;2023-04-03T14:34:05;21.80;44.20
33943;DHT22;66763;47.856;17.462;2023-04-03T14:36:31;21.90;44.20
33943;DHT22;66763;47.856;17.462;2023-04-03T14:38:57;21.90;44.30
33943;DHT22;66763;47.856;17.462;2023-04-03T14:41:23;22.00;44.40
33943;DHT22;66763;47.856;17.462;2023-04-03T14:43:49;22.00;44.40
33943;DHT22;66763;47.856;17.462;2023-04-03T14:46:16;22.10;44.50
33943;DHT22;66763;47.856;17.462;2023-04-03T14:48:42;22.10;44.40
33943;DHT22;66763;47.856;17.462;2023-04-03T14:51:09;22.20;44.50
33943;DHT22;66763;47.856;17.462;2023-04-03T14:53:35;22.20;44.20
33943;DHT22;66763;47.856;17.462;2023-04-03T14:56:01;22.20;44.40
33943;DHT22;66763;47.856;17.462;2023-04-03T14:58:27;22.20;44.20
33943;DHT22;66763;47.856;17.462;2023-04-03T15:00:52;22.30;44.40
33943;DHT22;66763;47.856;17.462;2023-04-03T15:03:19;22.30;44.50
33943;DHT22;66763;47.856;17.462;2023-04-03T15:05:45;22.30;44.70
33943;DHT22;66763;47.856;17.462;2023-04-03T15:08:21;22.20;44.80
33943;DHT22;66763;47.856;17.462;2023-04-03T15:10:48;22.30;44.80
33943;DHT22;66763;47.856;17.462;2023-04-03T15:13:14;22.20;44.90
33943;DHT22;66763;47.856;17.462;2023-04-03T15:15:39;22.20;45.10
33943;DHT22;66763;47.856;17.462;2023-04-03T15:18:05;22.20;45.00
33943;DHT22;66763;47.856;17.462;2023-04-03T15:20:31;22.20;45.10
33943;DHT22;66763;47.856;17.462;2023-04-03T15:22:58;22.10;45.10
33943;DHT22;66763;47.856;17.462;2023-04-03T15:25:26;22.10;45.10
33943;DHT22;66763;47.856;17.462;2023-04-03T15:27:52;22.10;45.10
33943;DHT22;66763;47.856;17.462;2023-04-03T15:30:18;22.00;45.00
33943;DHT22;66763;47.856;17.462;2023-04-03T15:32:44;22.00;45.10
33943;DHT22;66763;47.856;17.462;2023-04-03T15:35:10;22.00;45.10
33943;DHT22;66763;47.856;17.462;2023-04-03T15:37:35;22.00;45.30
33943;DHT22;66763;47.856;17.462;2023-04-03T15:40:01;21.90;45.30
33943;DHT22;66763;47.856;17.462;2023-04-03T15:42:27;21.90;45.40
33943;DHT22;66763;47.856;17.462;2023-04-03T15:44:52;22.00;45.40
33943;DHT22;66763;47.856;17.462;2023-04-03T15:47:18;21.90;44.90
33943;DHT22;66763;47.856;17.462;2023-04-03T15:49:43;21.80;44.80
33943;DHT22;66763;47.856;17.462;2023-04-03T15:52:09;21.80;45.10
33943;DHT22;66763;47.856;17.462;2023-04-03T15:54:34;21.80;45.20
33943;DHT22;66763;47.856;17.462;2023-04-03T15:57:00;21.80;45.10
33943;DHT22;66763;47.856;17.462;2023-04-03T15:59:25;21.70;44.90
33943;DHT22;66763;47.856;17.462;2023-04-03T16:01:51;21.70;44.90
33943;DHT22;66763;47.856;17.462;2023-04-03T16:04:17;21.70;44.70
33943;DHT22;66763;47.856;17.462;2023-04-03T16:06:43;21.70;45.00
33943;DHT22;66763;47.856;17.462;2023-04-03T16:09:09;21.70;44.90
33943;DHT22;66763;47.856;17.462;2023-04-03T16:11:34;21.60;44.50
33943;DHT22;66763;47.856;17.462;2023-04-03T16:14:01;21.60;44.90
33943;DHT22;66763;47.856;17.462;2023-04-03T16:16:26;21.60;44.90
33943;DHT22;66763;47.856;17.462;2023-04-03T16:18:53;21.60;44.70
33943;DHT22;66763;47.856;17.462;2023-04-03T16:21:19;21.60;45.10
33943;DHT22;66763;47.856;17.462;2023-04-03T16:23:45;21.60;45.60
33943;DHT22;66763;47.856;17.462;2023-04-03T16:26:11;21.60;44.70
33943;DHT22;66763;47.856;17.462;2023-04-03T16:28:37;21.60;44.70
33943;DHT22;66763;47.856;17.462;2023-04-03T16:31:02;21.60;45.00
33943;DHT22;66763;47.856;17.462;2023-04-03T16:33:28;21.60;44.50
33943;DHT22;66763;47.856;17.462;2023-04-03T16:35:54;21.60;45.00
33943;DHT22;66763;47.856;17.462;2023-04-03T16:38:19;21.60;44.10
33943;DHT22;66763;47.856;17.462;2023-04-03T16:40:48;21.60;44.50
33943;DHT22;66763;47.856;17.462;2023-04-03T16:43:14;21.60;44.60
33943;DHT22;66763;47.856;17.462;2023-04-03T16:45:40;21.50;44.00
33943;DHT22;66763;47.856;17.462;2023-04-03T16:48:06;21.50;44.40